Overview Statistics Trail Chart Weather Telemetry Raw packets
 

This is the latest recevied weather packets stored in our database for station/object OE3CJB-13. If no packets are shown the sender has not sent any weather packets the latest 10 day(s).

<< 1 2 3 4 >>
Time Temp. Humidity Pressure Rain* Wind** Luminosity Snow
1788710450 26.11° C 15% 1211.4 hPa 0 mm - - -
1788709536 26.11° C 15% 1211.2 hPa 0 mm - - -
1788708624 26.67° C 14% 1212.8 hPa 0 mm - - -
1788707767 26.67° C 14% 1212 hPa 0 mm - - -
1788706851 27.22° C 15% 1212.9 hPa 0 mm - - -
1788705936 27.22° C 13% 1213.7 hPa 0 mm - - -
1788705024 27.22° C 13% 1213.8 hPa 0 mm - - -
1788704166 27.22° C 14% 1213.7 hPa 0 mm - - -
1788703250 27.22° C 15% 1213.8 hPa 0 mm - - -
1788702336 27.22° C 15% 1213.1 hPa 0 mm - - -
1788701424 27.22° C 17% 1213.9 hPa 0 mm - - -
1788700566 27.22° C 17% 1213.1 hPa 0 mm - - -
1788699650 27.22° C 17% 1212.5 hPa 0 mm - - -
1788698736 27.22° C 18% 1212.4 hPa 0 mm - - -
1788697824 26.67° C 19% 1211.8 hPa 0 mm - - -
1788696967 26.67° C 19% 1211.9 hPa 0 mm - - -
1788696068 26.67° C 19% 1212 hPa 0 mm - - -
1788695136 26.11° C 22% 1211.1 hPa 0 mm - - -
1788694231 25.56° C 23% 1211.3 hPa 0 mm - - -
1788693367 25.56° C 24% 1211.5 hPa 0 mm - - -
1788692459 25° C 26% 1210.6 hPa 0 mm - - -
1788691565 25° C 27% 1210.7 hPa 0 mm - - -
1788690623 24.44° C 30% 1210 hPa 0 mm - - -
1788689766 24.44° C 30% 1208.7 hPa 0 mm - - -
1788688852 23.89° C 34% 1208.8 hPa 0 mm - - -

* Rain latest hour (hover to see other rain measurements)
** Current wind speed in m/s (hover to see current wind gust speed)